sensor_id;sensor_type;location;lat;lon;timestamp;temperature;humidity
30206;DHT22;17010;51.306;3.150;2022-08-14T00:00:43;22.40;99.90
30206;DHT22;17010;51.306;3.150;2022-08-14T00:03:23;22.40;99.90
30206;DHT22;17010;51.306;3.150;2022-08-14T00:05:51;22.40;99.90
30206;DHT22;17010;51.306;3.150;2022-08-14T00:08:17;22.30;99.90
30206;DHT22;17010;51.306;3.150;2022-08-14T00:10:44;22.30;99.90
30206;DHT22;17010;51.306;3.150;2022-08-14T00:13:11;22.20;99.90
30206;DHT22;17010;51.306;3.150;2022-08-14T00:15:40;22.20;99.90
30206;DHT22;17010;51.306;3.150;2022-08-14T00:18:08;22.20;99.90
30206;DHT22;17010;51.306;3.150;2022-08-14T00:20:38;22.20;99.90
30206;DHT22;17010;51.306;3.150;2022-08-14T00:23:06;22.30;99.90
30206;DHT22;17010;51.306;3.150;2022-08-14T00:25:33;22.30;99.90
30206;DHT22;17010;51.306;3.150;2022-08-14T00:27:59;22.30;99.90
30206;DHT22;17010;51.306;3.150;2022-08-14T00:30:25;22.30;99.90
30206;DHT22;17010;51.306;3.150;2022-08-14T00:32:51;22.30;99.90
30206;DHT22;17010;51.306;3.150;2022-08-14T00:35:18;22.30;99.90
30206;DHT22;17010;51.306;3.150;2022-08-14T00:37:45;22.30;99.90
30206;DHT22;17010;51.306;3.150;2022-08-14T00:40:14;22.40;99.90
30206;DHT22;17010;51.306;3.150;2022-08-14T00:42:41;22.40;99.90
30206;DHT22;17010;51.306;3.150;2022-08-14T00:45:09;22.30;99.90
30206;DHT22;17010;51.306;3.150;2022-08-14T00:47:36;22.30;99.90
30206;DHT22;17010;51.306;3.150;2022-08-14T00:50:05;22.30;99.90
30206;DHT22;17010;51.306;3.150;2022-08-14T00:52:32;22.30;99.90
30206;DHT22;17010;51.306;3.150;2022-08-14T00:54:59;22.30;99.90
30206;DHT22;17010;51.306;3.150;2022-08-14T00:57:28;22.30;99.90
30206;DHT22;17010;51.306;3.150;2022-08-14T00:59:55;22.40;99.90
30206;DHT22;17010;51.306;3.150;2022-08-14T01:02:22;22.50;99.90
30206;DHT22;17010;51.306;3.150;2022-08-14T01:04:57;22.60;99.90
30206;DHT22;17010;51.306;3.150;2022-08-14T01:07:24;22.60;99.90
30206;DHT22;17010;51.306;3.150;2022-08-14T01:09:54;22.60;99.90
30206;DHT22;17010;51.306;3.150;2022-08-14T01:12:21;22.60;99.90
30206;DHT22;17010;51.306;3.150;2022-08-14T01:14:48;22.50;99.90
30206;DHT22;17010;51.306;3.150;2022-08-14T01:17:17;22.50;99.90
30206;DHT22;17010;51.306;3.150;2022-08-14T01:19:44;22.60;99.90
30206;DHT22;17010;51.306;3.150;2022-08-14T01:22:29;22.60;99.90
30206;DHT22;17010;51.306;3.150;2022-08-14T01:24:56;22.50;99.90
30206;DHT22;17010;51.306;3.150;2022-08-14T01:27:22;22.50;99.90
30206;DHT22;17010;51.306;3.150;2022-08-14T01:29:52;22.50;99.90
30206;DHT22;17010;51.306;3.150;2022-08-14T01:32:19;22.40;99.90
30206;DHT22;17010;51.306;3.150;2022-08-14T01:34:50;22.40;99.90
30206;DHT22;17010;51.306;3.150;2022-08-14T01:37:19;22.40;99.90
30206;DHT22;17010;51.306;3.150;2022-08-14T01:39:50;22.40;99.90
30206;DHT22;17010;51.306;3.150;2022-08-14T01:42:19;22.30;99.90
30206;DHT22;17010;51.306;3.150;2022-08-14T01:44:46;22.30;99.90
30206;DHT22;17010;51.306;3.150;2022-08-14T01:47:17;22.30;99.90
30206;DHT22;17010;51.306;3.150;2022-08-14T01:49:44;22.20;99.90
30206;DHT22;17010;51.306;3.150;2022-08-14T01:52:10;22.20;99.90
30206;DHT22;17010;51.306;3.150;2022-08-14T01:54:38;22.10;99.90
30206;DHT22;17010;51.306;3.150;2022-08-14T01:57:04;22.10;99.90
30206;DHT22;17010;51.306;3.150;2022-08-14T01:59:35;22.10;99.90
30206;DHT22;17010;51.306;3.150;2022-08-14T02:02:05;22.00;99.90
30206;DHT22;17010;51.306;3.150;2022-08-14T02:04:37;22.00;99.90
30206;DHT22;17010;51.306;3.150;2022-08-14T02:07:05;21.90;99.90
30206;DHT22;17010;51.306;3.150;2022-08-14T02:09:31;22.00;99.90
30206;DHT22;17010;51.306;3.150;2022-08-14T02:12:01;22.00;99.90
30206;DHT22;17010;51.306;3.150;2022-08-14T02:14:28;22.00;99.90
30206;DHT22;17010;51.306;3.150;2022-08-14T02:16:56;21.90;99.90
30206;DHT22;17010;51.306;3.150;2022-08-14T02:19:25;22.00;99.90
30206;DHT22;17010;51.306;3.150;2022-08-14T02:21:57;22.00;99.90
30206;DHT22;17010;51.306;3.150;2022-08-14T02:24:26;22.00;99.90
30206;DHT22;17010;51.306;3.150;2022-08-14T02:26:54;21.90;99.90
30206;DHT22;17010;51.306;3.150;2022-08-14T02:29:22;21.90;99.90
30206;DHT22;17010;51.306;3.150;2022-08-14T02:31:51;21.90;99.90
30206;DHT22;17010;51.306;3.150;2022-08-14T02:34:19;21.90;99.90
30206;DHT22;17010;51.306;3.150;2022-08-14T02:36:48;21.80;99.90
30206;DHT22;17010;51.306;3.150;2022-08-14T02:39:14;21.80;99.90
30206;DHT22;17010;51.306;3.150;2022-08-14T02:41:41;21.80;99.90
30206;DHT22;17010;51.306;3.150;2022-08-14T02:44:08;21.80;99.90
30206;DHT22;17010;51.306;3.150;2022-08-14T02:46:40;21.70;99.90
30206;DHT22;17010;51.306;3.150;2022-08-14T02:49:10;21.60;99.90
30206;DHT22;17010;51.306;3.150;2022-08-14T02:51:36;21.60;99.90
30206;DHT22;17010;51.306;3.150;2022-08-14T02:54:05;21.60;99.90
30206;DHT22;17010;51.306;3.150;2022-08-14T02:56:36;21.60;99.90
30206;DHT22;17010;51.306;3.150;2022-08-14T02:59:07;21.50;99.90
30206;DHT22;17010;51.306;3.150;2022-08-14T03:01:35;21.50;99.90
30206;DHT22;17010;51.306;3.150;2022-08-14T03:04:03;21.40;99.90
30206;DHT22;17010;51.306;3.150;2022-08-14T03:06:31;21.40;99.90
30206;DHT22;17010;51.306;3.150;2022-08-14T03:08:57;21.40;99.90
30206;DHT22;17010;51.306;3.150;2022-08-14T03:11:24;21.30;99.90
30206;DHT22;17010;51.306;3.150;2022-08-14T03:13:51;21.30;99.90
30206;DHT22;17010;51.306;3.150;2022-08-14T03:16:23;21.30;99.90
30206;DHT22;17010;51.306;3.150;2022-08-14T03:18:51;21.20;99.90
30206;DHT22;17010;51.306;3.150;2022-08-14T03:21:23;21.10;99.90
30206;DHT22;17010;51.306;3.150;2022-08-14T03:23:52;21.10;99.90
30206;DHT22;17010;51.306;3.150;2022-08-14T03:26:42;21.10;99.90
30206;DHT22;17010;51.306;3.150;2022-08-14T03:29:11;21.00;99.90
30206;DHT22;17010;51.306;3.150;2022-08-14T03:31:38;21.00;99.90
30206;DHT22;17010;51.306;3.150;2022-08-14T03:34:09;21.00;99.90
30206;DHT22;17010;51.306;3.150;2022-08-14T03:36:36;21.00;99.90
30206;DHT22;17010;51.306;3.150;2022-08-14T03:39:05;21.10;99.90
30206;DHT22;17010;51.306;3.150;2022-08-14T03:41:32;21.10;99.90
30206;DHT22;17010;51.306;3.150;2022-08-14T03:44:00;21.10;99.90
30206;DHT22;17010;51.306;3.150;2022-08-14T03:46:28;21.10;99.90
30206;DHT22;17010;51.306;3.150;2022-08-14T03:48:55;21.10;99.90
30206;DHT22;17010;51.306;3.150;2022-08-14T03:51:22;21.10;99.90
30206;DHT22;17010;51.306;3.150;2022-08-14T03:53:55;21.00;99.90
30206;DHT22;17010;51.306;3.150;2022-08-14T03:56:22;21.10;99.90
30206;DHT22;17010;51.306;3.150;2022-08-14T03:58:52;21.00;99.90
30206;DHT22;17010;51.306;3.150;2022-08-14T04:01:20;21.00;99.90
30206;DHT22;17010;51.306;3.150;2022-08-14T04:03:49;20.90;99.90
30206;DHT22;17010;51.306;3.150;2022-08-14T04:06:16;20.90;99.90
30206;DHT22;17010;51.306;3.150;2022-08-14T04:08:42;20.80;99.90
30206;DHT22;17010;51.306;3.150;2022-08-14T04:11:09;20.80;99.90
30206;DHT22;17010;51.306;3.150;2022-08-14T04:13:37;20.70;99.90
30206;DHT22;17010;51.306;3.150;2022-08-14T04:16:06;20.60;99.90
30206;DHT22;17010;51.306;3.150;2022-08-14T04:18:33;20.50;99.90
30206;DHT22;17010;51.306;3.150;2022-08-14T04:21:07;20.40;99.90
30206;DHT22;17010;51.306;3.150;2022-08-14T04:23:35;20.30;99.90
30206;DHT22;17010;51.306;3.150;2022-08-14T04:26:03;20.30;99.90
30206;DHT22;17010;51.306;3.150;2022-08-14T04:28:30;20.30;99.90
30206;DHT22;17010;51.306;3.150;2022-08-14T04:30:56;20.20;99.90
30206;DHT22;17010;51.306;3.150;2022-08-14T04:33:23;20.20;99.90
30206;DHT22;17010;51.306;3.150;2022-08-14T04:35:50;20.10;99.90
30206;DHT22;17010;51.306;3.150;2022-08-14T04:38:20;20.10;99.90
30206;DHT22;17010;51.306;3.150;2022-08-14T04:41:05;20.00;99.90
30206;DHT22;17010;51.306;3.150;2022-08-14T04:43:50;20.00;99.90
30206;DHT22;17010;51.306;3.150;2022-08-14T04:46:19;20.00;99.90
30206;DHT22;17010;51.306;3.150;2022-08-14T04:48:45;20.00;99.90
30206;DHT22;17010;51.306;3.150;2022-08-14T04:51:14;20.00;99.90
30206;DHT22;17010;51.306;3.150;2022-08-14T04:53:44;19.90;99.90
30206;DHT22;17010;51.306;3.150;2022-08-14T04:56:16;19.90;99.90
30206;DHT22;17010;51.306;3.150;2022-08-14T04:58:43;19.90;99.90
30206;DHT22;17010;51.306;3.150;2022-08-14T05:01:10;19.90;99.90
30206;DHT22;17010;51.306;3.150;2022-08-14T05:03:37;20.00;99.90
30206;DHT22;17010;51.306;3.150;2022-08-14T05:06:08;19.90;99.90
30206;DHT22;17010;51.306;3.150;2022-08-14T05:08:36;20.00;99.90
30206;DHT22;17010;51.306;3.150;2022-08-14T05:11:05;20.00;99.90
30206;DHT22;17010;51.306;3.150;2022-08-14T05:13:32;20.00;99.90
30206;DHT22;17010;51.306;3.150;2022-08-14T05:15:59;20.00;99.90
30206;DHT22;17010;51.306;3.150;2022-08-14T05:18:28;20.20;99.90
30206;DHT22;17010;51.306;3.150;2022-08-14T05:20:58;20.50;99.90
30206;DHT22;17010;51.306;3.150;2022-08-14T05:23:26;20.80;99.90
30206;DHT22;17010;51.306;3.150;2022-08-14T05:25:55;21.00;99.90
30206;DHT22;17010;51.306;3.150;2022-08-14T05:28:34;21.20;99.90
30206;DHT22;17010;51.306;3.150;2022-08-14T05:31:03;21.70;99.90
30206;DHT22;17010;51.306;3.150;2022-08-14T05:33:32;22.30;99.90
30206;DHT22;17010;51.306;3.150;2022-08-14T05:36:01;22.90;99.90
30206;DHT22;17010;51.306;3.150;2022-08-14T05:38:29;23.40;99.90
30206;DHT22;17010;51.306;3.150;2022-08-14T05:41:02;23.90;99.90
30206;DHT22;17010;51.306;3.150;2022-08-14T05:43:29;24.40;99.90
30206;DHT22;17010;51.306;3.150;2022-08-14T05:45:56;24.90;99.90
30206;DHT22;17010;51.306;3.150;2022-08-14T05:48:23;25.50;99.90
30206;DHT22;17010;51.306;3.150;2022-08-14T05:50:50;25.90;99.90
30206;DHT22;17010;51.306;3.150;2022-08-14T05:53:17;26.10;99.90
30206;DHT22;17010;51.306;3.150;2022-08-14T05:55:43;26.40;99.90
30206;DHT22;17010;51.306;3.150;2022-08-14T05:58:09;26.70;99.90
30206;DHT22;17010;51.306;3.150;2022-08-14T06:00:38;27.20;99.90
30206;DHT22;17010;51.306;3.150;2022-08-14T06:03:10;27.70;99.90
30206;DHT22;17010;51.306;3.150;2022-08-14T06:05:37;28.20;99.10
30206;DHT22;17010;51.306;3.150;2022-08-14T06:08:03;28.40;98.90
30206;DHT22;17010;51.306;3.150;2022-08-14T06:10:30;28.60;98.30
30206;DHT22;17010;51.306;3.150;2022-08-14T06:12:57;28.60;98.40
30206;DHT22;17010;51.306;3.150;2022-08-14T06:15:26;28.60;99.60
30206;DHT22;17010;51.306;3.150;2022-08-14T06:17:53;28.70;98.80
30206;DHT22;17010;51.306;3.150;2022-08-14T06:20:21;28.70;98.70
30206;DHT22;17010;51.306;3.150;2022-08-14T06:22:48;28.80;98.60
30206;DHT22;17010;51.306;3.150;2022-08-14T06:25:15;28.90;97.80
30206;DHT22;17010;51.306;3.150;2022-08-14T06:27:46;29.10;98.40
30206;DHT22;17010;51.306;3.150;2022-08-14T06:30:15;29.30;96.90
30206;DHT22;17010;51.306;3.150;2022-08-14T06:32:41;29.30;93.90
30206;DHT22;17010;51.306;3.150;2022-08-14T06:35:08;29.20;93.30
30206;DHT22;17010;51.306;3.150;2022-08-14T06:37:58;29.30;93.90
30206;DHT22;17010;51.306;3.150;2022-08-14T06:40:27;29.50;92.60
30206;DHT22;17010;51.306;3.150;2022-08-14T06:42:58;29.30;92.10
30206;DHT22;17010;51.306;3.150;2022-08-14T06:45:25;29.20;91.10
30206;DHT22;17010;51.306;3.150;2022-08-14T06:47:51;29.10;90.70
30206;DHT22;17010;51.306;3.150;2022-08-14T06:50:19;29.10;92.00
30206;DHT22;17010;51.306;3.150;2022-08-14T06:52:46;29.40;92.10
30206;DHT22;17010;51.306;3.150;2022-08-14T06:55:14;29.70;91.20
30206;DHT22;17010;51.306;3.150;2022-08-14T06:57:50;29.90;90.80
30206;DHT22;17010;51.306;3.150;2022-08-14T07:00:22;29.90;91.30
30206;DHT22;17010;51.306;3.150;2022-08-14T07:02:48;29.80;88.90
30206;DHT22;17010;51.306;3.150;2022-08-14T07:05:34;29.60;90.00
30206;DHT22;17010;51.306;3.150;2022-08-14T07:08:29;29.60;88.30
30206;DHT22;17010;51.306;3.150;2022-08-14T07:10:57;29.60;88.90
30206;DHT22;17010;51.306;3.150;2022-08-14T07:13:25;29.50;87.80
30206;DHT22;17010;51.306;3.150;2022-08-14T07:15:53;29.30;85.20
30206;DHT22;17010;51.306;3.150;2022-08-14T07:18:27;29.10;87.90
30206;DHT22;17010;51.306;3.150;2022-08-14T07:20:53;29.00;88.00
30206;DHT22;17010;51.306;3.150;2022-08-14T07:23:23;29.10;89.30
30206;DHT22;17010;51.306;3.150;2022-08-14T07:25:52;29.40;89.80
30206;DHT22;17010;51.306;3.150;2022-08-14T07:30:55;29.90;88.40
30206;DHT22;17010;51.306;3.150;2022-08-14T07:33:24;30.30;87.20
30206;DHT22;17010;51.306;3.150;2022-08-14T07:35:51;30.70;86.60
30206;DHT22;17010;51.306;3.150;2022-08-14T07:38:19;31.00;85.50
30206;DHT22;17010;51.306;3.150;2022-08-14T07:40:47;31.20;83.50
30206;DHT22;17010;51.306;3.150;2022-08-14T07:43:14;31.60;84.80
30206;DHT22;17010;51.306;3.150;2022-08-14T07:45:41;32.00;84.20
30206;DHT22;17010;51.306;3.150;2022-08-14T07:48:08;32.10;81.20
30206;DHT22;17010;51.306;3.150;2022-08-14T07:50:34;32.20;81.40
30206;DHT22;17010;51.306;3.150;2022-08-14T07:53:01;32.50;79.10
30206;DHT22;17010;51.306;3.150;2022-08-14T07:55:28;32.70;78.50
30206;DHT22;17010;51.306;3.150;2022-08-14T07:57:54;32.80;78.10
30206;DHT22;17010;51.306;3.150;2022-08-14T08:00:23;32.80;78.50
30206;DHT22;17010;51.306;3.150;2022-08-14T08:02:51;32.80;79.60
30206;DHT22;17010;51.306;3.150;2022-08-14T08:05:20;32.90;79.50
30206;DHT22;17010;51.306;3.150;2022-08-14T08:07:47;33.10;80.30
30206;DHT22;17010;51.306;3.150;2022-08-14T08:10:23;33.30;78.10
30206;DHT22;17010;51.306;3.150;2022-08-14T08:15:33;34.00;77.90
30206;DHT22;17010;51.306;3.150;2022-08-14T08:18:04;34.60;74.00
30206;DHT22;17010;51.306;3.150;2022-08-14T08:20:33;35.20;72.20
30206;DHT22;17010;51.306;3.150;2022-08-14T08:23:02;35.40;70.20
30206;DHT22;17010;51.306;3.150;2022-08-14T08:25:34;35.60;70.50
30206;DHT22;17010;51.306;3.150;2022-08-14T08:28:06;36.00;69.80
30206;DHT22;17010;51.306;3.150;2022-08-14T08:30:38;36.60;70.40
30206;DHT22;17010;51.306;3.150;2022-08-14T08:33:06;37.20;66.70
30206;DHT22;17010;51.306;3.150;2022-08-14T08:35:36;37.60;62.50
30206;DHT22;17010;51.306;3.150;2022-08-14T08:38:14;37.80;63.50
30206;DHT22;17010;51.306;3.150;2022-08-14T08:40:46;37.60;62.80
30206;DHT22;17010;51.306;3.150;2022-08-14T08:45:59;36.70;60.40
30206;DHT22;17010;51.306;3.150;2022-08-14T08:49:08;36.50;60.80
30206;DHT22;17010;51.306;3.150;2022-08-14T08:51:28;36.30;61.50
30206;DHT22;17010;51.306;3.150;2022-08-14T08:53:56;36.10;63.50
30206;DHT22;17010;51.306;3.150;2022-08-14T08:59:26;36.20;62.30
30206;DHT22;17010;51.306;3.150;2022-08-14T09:01:58;36.20;62.10
30206;DHT22;17010;51.306;3.150;2022-08-14T09:04:29;36.40;62.10
30206;DHT22;17010;51.306;3.150;2022-08-14T09:06:55;36.00;59.30
30206;DHT22;17010;51.306;3.150;2022-08-14T09:09:27;35.50;59.60
30206;DHT22;17010;51.306;3.150;2022-08-14T09:11:54;35.40;61.20
30206;DHT22;17010;51.306;3.150;2022-08-14T09:14:22;35.40;61.90
30206;DHT22;17010;51.306;3.150;2022-08-14T09:16:48;35.50;62.70
30206;DHT22;17010;51.306;3.150;2022-08-14T09:19:15;36.00;62.10
30206;DHT22;17010;51.306;3.150;2022-08-14T09:21:42;36.60;60.10
30206;DHT22;17010;51.306;3.150;2022-08-14T09:24:09;37.10;59.70
30206;DHT22;17010;51.306;3.150;2022-08-14T09:26:35;37.50;59.30
30206;DHT22;17010;51.306;3.150;2022-08-14T09:29:03;37.30;56.70
30206;DHT22;17010;51.306;3.150;2022-08-14T09:31:30;37.80;58.10
30206;DHT22;17010;51.306;3.150;2022-08-14T09:34:21;38.50;58.80
30206;DHT22;17010;51.306;3.150;2022-08-14T09:37:14;38.30;56.10
30206;DHT22;17010;51.306;3.150;2022-08-14T09:45:19;39.40;53.30
30206;DHT22;17010;51.306;3.150;2022-08-14T09:47:53;38.80;54.50
30206;DHT22;17010;51.306;3.150;2022-08-14T09:50:27;38.90;52.60
30206;DHT22;17010;51.306;3.150;2022-08-14T09:52:59;38.90;53.00
30206;DHT22;17010;51.306;3.150;2022-08-14T09:55:30;38.90;52.80
30206;DHT22;17010;51.306;3.150;2022-08-14T09:58:15;38.90;51.90
30206;DHT22;17010;51.306;3.150;2022-08-14T10:00:51;38.90;51.50
30206;DHT22;17010;51.306;3.150;2022-08-14T10:06:23;39.30;50.10
30206;DHT22;17010;51.306;3.150;2022-08-14T10:11:33;38.20;52.00
30206;DHT22;17010;51.306;3.150;2022-08-14T10:14:14;37.40;52.70
30206;DHT22;17010;51.306;3.150;2022-08-14T10:16:46;37.40;50.80
30206;DHT22;17010;51.306;3.150;2022-08-14T10:19:14;37.50;51.20
30206;DHT22;17010;51.306;3.150;2022-08-14T10:21:42;38.00;49.90
30206;DHT22;17010;51.306;3.150;2022-08-14T10:24:30;38.60;50.30
30206;DHT22;17010;51.306;3.150;2022-08-14T10:26:59;38.80;48.70
30206;DHT22;17010;51.306;3.150;2022-08-14T10:29:36;39.20;48.50
30206;DHT22;17010;51.306;3.150;2022-08-14T10:32:06;39.80;47.40
30206;DHT22;17010;51.306;3.150;2022-08-14T10:34:37;40.20;46.10
30206;DHT22;17010;51.306;3.150;2022-08-14T10:37:09;40.50;46.20
30206;DHT22;17010;51.306;3.150;2022-08-14T10:39:39;40.50;43.60
30206;DHT22;17010;51.306;3.150;2022-08-14T10:42:10;40.00;44.80
30206;DHT22;17010;51.306;3.150;2022-08-14T10:44:39;40.20;45.40
30206;DHT22;17010;51.306;3.150;2022-08-14T10:47:06;40.50;44.20
30206;DHT22;17010;51.306;3.150;2022-08-14T10:49:36;40.10;43.60
30206;DHT22;17010;51.306;3.150;2022-08-14T10:52:08;39.90;43.10
30206;DHT22;17010;51.306;3.150;2022-08-14T10:54:39;39.70;44.40
30206;DHT22;17010;51.306;3.150;2022-08-14T10:57:22;39.50;44.10
30206;DHT22;17010;51.306;3.150;2022-08-14T10:59:57;39.50;44.10
30206;DHT22;17010;51.306;3.150;2022-08-14T11:02:32;39.10;44.00
30206;DHT22;17010;51.306;3.150;2022-08-14T11:07:30;39.50;43.70
30206;DHT22;17010;51.306;3.150;2022-08-14T11:09:58;39.40;42.90
30206;DHT22;17010;51.306;3.150;2022-08-14T11:12:25;39.60;43.10
30206;DHT22;17010;51.306;3.150;2022-08-14T11:14:53;40.30;43.10
30206;DHT22;17010;51.306;3.150;2022-08-14T11:17:20;40.50;42.30
30206;DHT22;17010;51.306;3.150;2022-08-14T11:19:47;40.80;41.50
30206;DHT22;17010;51.306;3.150;2022-08-14T11:22:15;40.70;39.50
30206;DHT22;17010;51.306;3.150;2022-08-14T11:24:42;40.60;38.80
30206;DHT22;17010;51.306;3.150;2022-08-14T11:27:09;39.70;39.60
30206;DHT22;17010;51.306;3.150;2022-08-14T11:29:36;39.80;40.10
30206;DHT22;17010;51.306;3.150;2022-08-14T11:32:03;39.70;40.00
30206;DHT22;17010;51.306;3.150;2022-08-14T11:34:35;39.60;39.20
30206;DHT22;17010;51.306;3.150;2022-08-14T11:37:09;39.20;39.60
30206;DHT22;17010;51.306;3.150;2022-08-14T11:39:36;38.90;38.90
30206;DHT22;17010;51.306;3.150;2022-08-14T11:42:06;38.80;39.00
30206;DHT22;17010;51.306;3.150;2022-08-14T11:44:33;38.90;39.40
30206;DHT22;17010;51.306;3.150;2022-08-14T11:46:59;38.60;39.30
30206;DHT22;17010;51.306;3.150;2022-08-14T11:49:27;38.30;39.30
30206;DHT22;17010;51.306;3.150;2022-08-14T11:51:55;38.00;39.00
30206;DHT22;17010;51.306;3.150;2022-08-14T11:54:22;37.40;40.20
30206;DHT22;17010;51.306;3.150;2022-08-14T11:56:48;37.20;40.80
30206;DHT22;17010;51.306;3.150;2022-08-14T11:59:17;36.50;41.50
30206;DHT22;17010;51.306;3.150;2022-08-14T12:01:44;36.20;41.60
30206;DHT22;17010;51.306;3.150;2022-08-14T12:04:16;36.40;41.60
30206;DHT22;17010;51.306;3.150;2022-08-14T12:06:48;36.20;41.60
30206;DHT22;17010;51.306;3.150;2022-08-14T12:09:51;36.30;42.20
30206;DHT22;17010;51.306;3.150;2022-08-14T12:12:20;36.20;41.40
30206;DHT22;17010;51.306;3.150;2022-08-14T12:14:50;36.10;41.60
30206;DHT22;17010;51.306;3.150;2022-08-14T12:17:28;36.10;42.00
30206;DHT22;17010;51.306;3.150;2022-08-14T12:19:58;36.30;42.40
30206;DHT22;17010;51.306;3.150;2022-08-14T12:22:42;36.50;49.00
30206;DHT22;17010;51.306;3.150;2022-08-14T12:25:13;36.00;52.50
30206;DHT22;17010;51.306;3.150;2022-08-14T12:27:46;35.50;53.20
30206;DHT22;17010;51.306;3.150;2022-08-14T12:32:53;34.90;54.80
30206;DHT22;17010;51.306;3.150;2022-08-14T12:35:21;34.70;56.50
30206;DHT22;17010;51.306;3.150;2022-08-14T12:37:49;34.30;59.10
30206;DHT22;17010;51.306;3.150;2022-08-14T12:40:17;34.20;60.50
30206;DHT22;17010;51.306;3.150;2022-08-14T12:42:48;34.20;61.20
30206;DHT22;17010;51.306;3.150;2022-08-14T12:45:14;34.20;62.90
30206;DHT22;17010;51.306;3.150;2022-08-14T12:47:41;34.00;62.20
30206;DHT22;17010;51.306;3.150;2022-08-14T12:50:11;33.70;64.70
30206;DHT22;17010;51.306;3.150;2022-08-14T12:52:39;33.90;63.00
30206;DHT22;17010;51.306;3.150;2022-08-14T12:55:15;34.00;50.10
30206;DHT22;17010;51.306;3.150;2022-08-14T12:57:43;34.40;62.20
30206;DHT22;17010;51.306;3.150;2022-08-14T13:00:11;34.20;65.40
30206;DHT22;17010;51.306;3.150;2022-08-14T13:02:46;34.20;67.60
30206;DHT22;17010;51.306;3.150;2022-08-14T13:05:15;34.20;68.60
30206;DHT22;17010;51.306;3.150;2022-08-14T13:07:42;34.30;68.80
30206;DHT22;17010;51.306;3.150;2022-08-14T13:10:18;34.10;70.50
30206;DHT22;17010;51.306;3.150;2022-08-14T13:12:50;33.70;68.80
30206;DHT22;17010;51.306;3.150;2022-08-14T13:15:17;33.30;67.90
30206;DHT22;17010;51.306;3.150;2022-08-14T13:17:52;32.80;71.10
30206;DHT22;17010;51.306;3.150;2022-08-14T13:20:22;32.60;64.40
30206;DHT22;17010;51.306;3.150;2022-08-14T13:22:49;32.20;67.60
30206;DHT22;17010;51.306;3.150;2022-08-14T13:25:18;31.90;66.00
30206;DHT22;17010;51.306;3.150;2022-08-14T13:27:47;31.60;68.10
30206;DHT22;17010;51.306;3.150;2022-08-14T13:30:15;31.30;70.30
30206;DHT22;17010;51.306;3.150;2022-08-14T13:32:43;31.30;71.70
30206;DHT22;17010;51.306;3.150;2022-08-14T13:35:11;31.20;73.10
30206;DHT22;17010;51.306;3.150;2022-08-14T13:37:38;31.20;75.80
30206;DHT22;17010;51.306;3.150;2022-08-14T13:40:05;31.10;77.70
30206;DHT22;17010;51.306;3.150;2022-08-14T13:42:31;31.10;78.50
30206;DHT22;17010;51.306;3.150;2022-08-14T13:45:02;31.10;76.00
30206;DHT22;17010;51.306;3.150;2022-08-14T13:47:30;31.30;77.20
30206;DHT22;17010;51.306;3.150;2022-08-14T13:49:59;31.30;75.90
30206;DHT22;17010;51.306;3.150;2022-08-14T13:52:33;31.10;76.30
30206;DHT22;17010;51.306;3.150;2022-08-14T13:55:05;30.90;75.60
30206;DHT22;17010;51.306;3.150;2022-08-14T13:57:32;30.80;76.30
30206;DHT22;17010;51.306;3.150;2022-08-14T14:00:07;30.60;74.90
30206;DHT22;17010;51.306;3.150;2022-08-14T14:02:44;30.50;74.60
30206;DHT22;17010;51.306;3.150;2022-08-14T14:05:14;30.40;74.00
30206;DHT22;17010;51.306;3.150;2022-08-14T14:07:51;30.20;76.50
30206;DHT22;17010;51.306;3.150;2022-08-14T14:10:27;30.10;75.90
30206;DHT22;17010;51.306;3.150;2022-08-14T14:12:53;30.10;75.40
30206;DHT22;17010;51.306;3.150;2022-08-14T14:15:20;30.20;77.20
30206;DHT22;17010;51.306;3.150;2022-08-14T14:17:47;30.10;74.80
30206;DHT22;17010;51.306;3.150;2022-08-14T14:20:18;30.10;71.50
30206;DHT22;17010;51.306;3.150;2022-08-14T14:22:46;30.00;69.00
30206;DHT22;17010;51.306;3.150;2022-08-14T14:25:15;29.90;69.00
30206;DHT22;17010;51.306;3.150;2022-08-14T14:27:42;29.70;69.10
30206;DHT22;17010;51.306;3.150;2022-08-14T14:30:11;29.70;70.30
30206;DHT22;17010;51.306;3.150;2022-08-14T14:32:40;29.70;71.10
30206;DHT22;17010;51.306;3.150;2022-08-14T14:35:12;29.50;72.40
30206;DHT22;17010;51.306;3.150;2022-08-14T14:37:45;29.30;73.60
30206;DHT22;17010;51.306;3.150;2022-08-14T14:40:13;29.20;74.30
30206;DHT22;17010;51.306;3.150;2022-08-14T14:42:50;29.20;76.30
30206;DHT22;17010;51.306;3.150;2022-08-14T14:45:19;29.10;78.20
30206;DHT22;17010;51.306;3.150;2022-08-14T14:47:47;29.00;79.40
30206;DHT22;17010;51.306;3.150;2022-08-14T14:50:14;29.00;82.50
30206;DHT22;17010;51.306;3.150;2022-08-14T14:52:40;28.90;83.40
30206;DHT22;17010;51.306;3.150;2022-08-14T14:55:09;28.70;86.10
30206;DHT22;17010;51.306;3.150;2022-08-14T14:57:37;28.60;85.30
30206;DHT22;17010;51.306;3.150;2022-08-14T15:00:12;28.50;85.40
30206;DHT22;17010;51.306;3.150;2022-08-14T15:02:42;28.50;85.10
30206;DHT22;17010;51.306;3.150;2022-08-14T15:05:10;28.60;85.90
30206;DHT22;17010;51.306;3.150;2022-08-14T15:07:37;28.50;83.50
30206;DHT22;17010;51.306;3.150;2022-08-14T15:10:08;28.50;82.80
30206;DHT22;17010;51.306;3.150;2022-08-14T15:12:35;28.40;83.20
30206;DHT22;17010;51.306;3.150;2022-08-14T15:15:01;28.30;84.30
30206;DHT22;17010;51.306;3.150;2022-08-14T15:17:28;28.40;87.20
30206;DHT22;17010;51.306;3.150;2022-08-14T15:20:04;28.50;86.50
30206;DHT22;17010;51.306;3.150;2022-08-14T15:22:33;28.70;87.90
30206;DHT22;17010;51.306;3.150;2022-08-14T15:24:59;28.70;83.60
30206;DHT22;17010;51.306;3.150;2022-08-14T15:27:25;28.70;83.60
30206;DHT22;17010;51.306;3.150;2022-08-14T15:29:54;28.70;82.10
30206;DHT22;17010;51.306;3.150;2022-08-14T15:32:20;28.70;84.40
30206;DHT22;17010;51.306;3.150;2022-08-14T15:34:46;28.60;84.30
30206;DHT22;17010;51.306;3.150;2022-08-14T15:37:12;28.60;84.10
30206;DHT22;17010;51.306;3.150;2022-08-14T15:39:39;28.70;82.90
30206;DHT22;17010;51.306;3.150;2022-08-14T15:42:05;28.70;83.30
30206;DHT22;17010;51.306;3.150;2022-08-14T15:44:32;28.70;82.40
30206;DHT22;17010;51.306;3.150;2022-08-14T15:46:58;28.40;81.70
30206;DHT22;17010;51.306;3.150;2022-08-14T15:49:26;28.40;81.90
30206;DHT22;17010;51.306;3.150;2022-08-14T15:51:55;28.30;82.60
30206;DHT22;17010;51.306;3.150;2022-08-14T15:54:24;28.30;83.10
30206;DHT22;17010;51.306;3.150;2022-08-14T15:57:03;28.40;85.70
30206;DHT22;17010;51.306;3.150;2022-08-14T15:59:35;28.40;85.00
30206;DHT22;17010;51.306;3.150;2022-08-14T16:02:20;28.50;82.20
30206;DHT22;17010;51.306;3.150;2022-08-14T16:04:47;28.50;81.90
30206;DHT22;17010;51.306;3.150;2022-08-14T16:07:14;28.50;80.10
30206;DHT22;17010;51.306;3.150;2022-08-14T16:09:41;28.50;80.20
30206;DHT22;17010;51.306;3.150;2022-08-14T16:12:07;28.50;83.60